sensor_id;sensor_type;location;lat;lon;timestamp;temperature;humidity
10885;DHT22;5495;53.252;10.390;2022-10-16T00:00:25;14.60;99.90
10885;DHT22;5495;53.252;10.390;2022-10-16T00:02:46;13.40;99.90
10885;DHT22;5495;53.252;10.390;2022-10-16T00:05:20;14.60;99.90
10885;DHT22;5495;53.252;10.390;2022-10-16T00:07:51;14.30;99.90
10885;DHT22;5495;53.252;10.390;2022-10-16T00:10:36;14.60;99.90
10885;DHT22;5495;53.252;10.390;2022-10-16T00:13:16;15.30;99.90
10885;DHT22;5495;53.252;10.390;2022-10-16T00:15:59;15.10;99.90
10885;DHT22;5495;53.252;10.390;2022-10-16T00:18:35;14.70;99.90
10885;DHT22;5495;53.252;10.390;2022-10-16T00:21:10;15.40;99.90
10885;DHT22;5495;53.252;10.390;2022-10-16T00:23:41;14.40;99.90
10885;DHT22;5495;53.252;10.390;2022-10-16T00:26:17;14.50;99.90
10885;DHT22;5495;53.252;10.390;2022-10-16T00:28:54;16.70;99.90
10885;DHT22;5495;53.252;10.390;2022-10-16T00:31:30;14.20;99.90
10885;DHT22;5495;53.252;10.390;2022-10-16T00:34:01;13.90;99.90
10885;DHT22;5495;53.252;10.390;2022-10-16T00:36:28;14.20;99.90
10885;DHT22;5495;53.252;10.390;2022-10-16T00:39:03;13.90;99.90
10885;DHT22;5495;53.252;10.390;2022-10-16T00:41:38;14.10;99.90
10885;DHT22;5495;53.252;10.390;2022-10-16T00:47:11;14.20;99.90
10885;DHT22;5495;53.252;10.390;2022-10-16T00:49:42;13.10;99.90
10885;DHT22;5495;53.252;10.390;2022-10-16T00:52:12;13.40;99.90
10885;DHT22;5495;53.252;10.390;2022-10-16T00:54:40;13.20;99.90
10885;DHT22;5495;53.252;10.390;2022-10-16T00:57:08;13.70;99.90
10885;DHT22;5495;53.252;10.390;2022-10-16T00:59:38;13.30;99.90
10885;DHT22;5495;53.252;10.390;2022-10-16T01:02:22;13.90;99.90
10885;DHT22;5495;53.252;10.390;2022-10-16T01:05:00;14.10;99.90
10885;DHT22;5495;53.252;10.390;2022-10-16T01:07:39;13.70;99.90
10885;DHT22;5495;53.252;10.390;2022-10-16T01:10:19;13.90;99.90
10885;DHT22;5495;53.252;10.390;2022-10-16T01:12:56;13.60;99.90
10885;DHT22;5495;53.252;10.390;2022-10-16T01:15:29;14.10;99.90
10885;DHT22;5495;53.252;10.390;2022-10-16T01:18:03;14.00;99.90
10885;DHT22;5495;53.252;10.390;2022-10-16T01:20:35;14.10;99.90
10885;DHT22;5495;53.252;10.390;2022-10-16T01:23:16;13.60;99.90
10885;DHT22;5495;53.252;10.390;2022-10-16T01:25:59;13.60;99.90
10885;DHT22;5495;53.252;10.390;2022-10-16T01:28:36;13.80;99.90
10885;DHT22;5495;53.252;10.390;2022-10-16T01:31:05;13.30;99.90
10885;DHT22;5495;53.252;10.390;2022-10-16T01:33:39;13.50;99.90
10885;DHT22;5495;53.252;10.390;2022-10-16T01:36:13;15.50;99.90
10885;DHT22;5495;53.252;10.390;2022-10-16T01:38:44;13.60;99.90
10885;DHT22;5495;53.252;10.390;2022-10-16T01:41:20;13.30;99.90
10885;DHT22;5495;53.252;10.390;2022-10-16T01:43:53;13.70;99.90
10885;DHT22;5495;53.252;10.390;2022-10-16T01:46:26;13.40;99.90
10885;DHT22;5495;53.252;10.390;2022-10-16T01:48:54;13.30;99.90
10885;DHT22;5495;53.252;10.390;2022-10-16T01:51:26;13.50;99.90
10885;DHT22;5495;53.252;10.390;2022-10-16T01:54:00;12.40;99.90
10885;DHT22;5495;53.252;10.390;2022-10-16T01:56:31;14.20;99.90
10885;DHT22;5495;53.252;10.390;2022-10-16T01:59:04;13.30;99.90
10885;DHT22;5495;53.252;10.390;2022-10-16T02:01:40;13.20;99.90
10885;DHT22;5495;53.252;10.390;2022-10-16T02:04:14;13.20;99.90
10885;DHT22;5495;53.252;10.390;2022-10-16T02:06:43;13.10;99.90
10885;DHT22;5495;53.252;10.390;2022-10-16T02:09:14;13.20;99.90
10885;DHT22;5495;53.252;10.390;2022-10-16T02:11:53;13.10;99.90
10885;DHT22;5495;53.252;10.390;2022-10-16T02:14:26;13.20;99.90
10885;DHT22;5495;53.252;10.390;2022-10-16T02:16:55;12.60;99.90
10885;DHT22;5495;53.252;10.390;2022-10-16T02:19:25;11.10;99.90
10885;DHT22;5495;53.252;10.390;2022-10-16T02:21:57;13.10;99.90
10885;DHT22;5495;53.252;10.390;2022-10-16T02:24:33;13.10;99.90
10885;DHT22;5495;53.252;10.390;2022-10-16T02:27:11;13.10;99.90
10885;DHT22;5495;53.252;10.390;2022-10-16T02:29:52;13.30;99.90
10885;DHT22;5495;53.252;10.390;2022-10-16T02:32:28;13.10;99.90
10885;DHT22;5495;53.252;10.390;2022-10-16T02:35:20;13.00;99.90
10885;DHT22;5495;53.252;10.390;2022-10-16T02:37:49;13.20;99.90
10885;DHT22;5495;53.252;10.390;2022-10-16T02:40:26;13.10;99.90
10885;DHT22;5495;53.252;10.390;2022-10-16T02:42:55;13.20;99.90
10885;DHT22;5495;53.252;10.390;2022-10-16T02:45:26;13.60;99.90
10885;DHT22;5495;53.252;10.390;2022-10-16T02:48:02;13.50;99.90
10885;DHT22;5495;53.252;10.390;2022-10-16T02:50:32;13.40;99.90
10885;DHT22;5495;53.252;10.390;2022-10-16T02:55:55;13.40;99.90
10885;DHT22;5495;53.252;10.390;2022-10-16T02:58:25;13.50;99.90
10885;DHT22;5495;53.252;10.390;2022-10-16T03:03:35;13.20;99.90
10885;DHT22;5495;53.252;10.390;2022-10-16T03:06:05;13.30;99.90
10885;DHT22;5495;53.252;10.390;2022-10-16T03:08:35;12.20;99.90
10885;DHT22;5495;53.252;10.390;2022-10-16T03:11:04;13.30;99.90
10885;DHT22;5495;53.252;10.390;2022-10-16T03:13:39;13.30;99.90
10885;DHT22;5495;53.252;10.390;2022-10-16T03:16:32;13.70;99.90
10885;DHT22;5495;53.252;10.390;2022-10-16T03:19:16;15.20;99.90
10885;DHT22;5495;53.252;10.390;2022-10-16T03:22:04;13.30;99.90
10885;DHT22;5495;53.252;10.390;2022-10-16T03:24:32;13.80;99.90
10885;DHT22;5495;53.252;10.390;2022-10-16T03:27:06;13.00;99.90
10885;DHT22;5495;53.252;10.390;2022-10-16T03:29:33;13.00;99.90
10885;DHT22;5495;53.252;10.390;2022-10-16T03:32:05;13.20;99.90
10885;DHT22;5495;53.252;10.390;2022-10-16T03:34:37;13.00;99.90
10885;DHT22;5495;53.252;10.390;2022-10-16T03:37:08;13.50;99.90
10885;DHT22;5495;53.252;10.390;2022-10-16T03:39:52;13.10;99.90
10885;DHT22;5495;53.252;10.390;2022-10-16T03:42:21;11.80;99.90
10885;DHT22;5495;53.252;10.390;2022-10-16T03:44:51;13.20;99.90
10885;DHT22;5495;53.252;10.390;2022-10-16T03:47:36;13.00;99.90
10885;DHT22;5495;53.252;10.390;2022-10-16T03:50:19;13.60;99.90
10885;DHT22;5495;53.252;10.390;2022-10-16T03:53:00;13.00;99.90
10885;DHT22;5495;53.252;10.390;2022-10-16T03:55:30;13.40;99.90
10885;DHT22;5495;53.252;10.390;2022-10-16T03:57:58;12.20;99.90
10885;DHT22;5495;53.252;10.390;2022-10-16T04:00:25;12.50;99.90
10885;DHT22;5495;53.252;10.390;2022-10-16T04:05:55;10.60;99.90
10885;DHT22;5495;53.252;10.390;2022-10-16T04:08:26;13.20;99.90
10885;DHT22;5495;53.252;10.390;2022-10-16T04:10:57;12.80;99.90
10885;DHT22;5495;53.252;10.390;2022-10-16T04:13:29;13.40;99.90
10885;DHT22;5495;53.252;10.390;2022-10-16T04:16:21;13.30;99.90
10885;DHT22;5495;53.252;10.390;2022-10-16T04:25:33;11.60;99.90
10885;DHT22;5495;53.252;10.390;2022-10-16T04:28:13;13.50;99.90
10885;DHT22;5495;53.252;10.390;2022-10-16T04:30:44;15.00;99.90
10885;DHT22;5495;53.252;10.390;2022-10-16T04:33:14;12.80;99.90
10885;DHT22;5495;53.252;10.390;2022-10-16T04:35:48;14.10;99.90
10885;DHT22;5495;53.252;10.390;2022-10-16T04:38:29;13.00;99.90
10885;DHT22;5495;53.252;10.390;2022-10-16T04:41:29;12.80;99.90
10885;DHT22;5495;53.252;10.390;2022-10-16T04:43:57;13.20;99.90
10885;DHT22;5495;53.252;10.390;2022-10-16T04:46:27;13.10;99.90
10885;DHT22;5495;53.252;10.390;2022-10-16T04:51:47;14.40;99.90
10885;DHT22;5495;53.252;10.390;2022-10-16T04:54:28;13.10;99.90
10885;DHT22;5495;53.252;10.390;2022-10-16T04:57:05;13.00;99.90
10885;DHT22;5495;53.252;10.390;2022-10-16T04:59:49;13.00;99.90
10885;DHT22;5495;53.252;10.390;2022-10-16T05:02:17;14.40;99.90
10885;DHT22;5495;53.252;10.390;2022-10-16T05:04:48;13.50;99.90
10885;DHT22;5495;53.252;10.390;2022-10-16T05:07:25;14.50;99.90
10885;DHT22;5495;53.252;10.390;2022-10-16T05:09:59;12.70;99.90
10885;DHT22;5495;53.252;10.390;2022-10-16T05:13:07;13.40;99.90
10885;DHT22;5495;53.252;10.390;2022-10-16T05:15:49;13.40;99.90
10885;DHT22;5495;53.252;10.390;2022-10-16T05:18:51;12.90;99.90
10885;DHT22;5495;53.252;10.390;2022-10-16T05:24:22;8.90;99.90
10885;DHT22;5495;53.252;10.390;2022-10-16T05:27:09;13.50;99.90
10885;DHT22;5495;53.252;10.390;2022-10-16T05:30:09;13.30;99.90
10885;DHT22;5495;53.252;10.390;2022-10-16T05:32:59;15.10;99.90
10885;DHT22;5495;53.252;10.390;2022-10-16T05:35:38;13.40;99.90
10885;DHT22;5495;53.252;10.390;2022-10-16T05:38:16;13.00;99.90
10885;DHT22;5495;53.252;10.390;2022-10-16T05:41:08;13.60;99.90
10885;DHT22;5495;53.252;10.390;2022-10-16T05:43:49;12.90;99.90
10885;DHT22;5495;53.252;10.390;2022-10-16T05:46:38;14.70;99.90
10885;DHT22;5495;53.252;10.390;2022-10-16T05:49:42;10.80;99.90
10885;DHT22;5495;53.252;10.390;2022-10-16T05:52:41;13.40;99.90
10885;DHT22;5495;53.252;10.390;2022-10-16T05:55:36;13.70;99.90
10885;DHT22;5495;53.252;10.390;2022-10-16T05:58:35;13.20;99.90
10885;DHT22;5495;53.252;10.390;2022-10-16T06:01:51;12.20;99.90
10885;DHT22;5495;53.252;10.390;2022-10-16T06:04:32;10.40;99.90
10885;DHT22;5495;53.252;10.390;2022-10-16T06:07:40;13.50;99.90
10885;DHT22;5495;53.252;10.390;2022-10-16T06:19:57;13.00;99.90
10885;DHT22;5495;53.252;10.390;2022-10-16T06:22:41;12.90;99.90
10885;DHT22;5495;53.252;10.390;2022-10-16T06:25:26;13.30;99.90
10885;DHT22;5495;53.252;10.390;2022-10-16T06:33:57;13.40;99.90
10885;DHT22;5495;53.252;10.390;2022-10-16T06:36:39;13.10;99.90
10885;DHT22;5495;53.252;10.390;2022-10-16T06:39:09;13.50;99.90
10885;DHT22;5495;53.252;10.390;2022-10-16T06:41:56;13.30;99.90
10885;DHT22;5495;53.252;10.390;2022-10-16T06:44:28;13.20;99.90
10885;DHT22;5495;53.252;10.390;2022-10-16T06:47:02;13.40;99.90
10885;DHT22;5495;53.252;10.390;2022-10-16T06:49:46;13.20;99.90
10885;DHT22;5495;53.252;10.390;2022-10-16T06:55:42;12.90;99.90
10885;DHT22;5495;53.252;10.390;2022-10-16T07:01:27;12.50;99.90
10885;DHT22;5495;53.252;10.390;2022-10-16T07:04:14;13.30;99.90
10885;DHT22;5495;53.252;10.390;2022-10-16T07:06:46;13.00;99.90
10885;DHT22;5495;53.252;10.390;2022-10-16T07:09:20;13.20;99.90
10885;DHT22;5495;53.252;10.390;2022-10-16T07:12:04;11.80;99.90
10885;DHT22;5495;53.252;10.390;2022-10-16T07:14:36;13.30;99.90
10885;DHT22;5495;53.252;10.390;2022-10-16T07:17:15;13.60;99.90
10885;DHT22;5495;53.252;10.390;2022-10-16T07:20:17;13.00;99.90
10885;DHT22;5495;53.252;10.390;2022-10-16T07:26:23;12.50;99.90
10885;DHT22;5495;53.252;10.390;2022-10-16T07:29:16;13.00;99.90
10885;DHT22;5495;53.252;10.390;2022-10-16T07:31:48;12.20;99.90
10885;DHT22;5495;53.252;10.390;2022-10-16T07:34:39;13.20;99.90
10885;DHT22;5495;53.252;10.390;2022-10-16T07:37:17;14.00;99.90
10885;DHT22;5495;53.252;10.390;2022-10-16T07:42:59;13.80;99.90
10885;DHT22;5495;53.252;10.390;2022-10-16T07:45:47;13.50;99.90
10885;DHT22;5495;53.252;10.390;2022-10-16T07:48:31;13.50;99.90
10885;DHT22;5495;53.252;10.390;2022-10-16T07:53:47;13.70;99.90
10885;DHT22;5495;53.252;10.390;2022-10-16T07:56:19;14.00;99.90
10885;DHT22;5495;53.252;10.390;2022-10-16T07:59:00;14.20;99.90
10885;DHT22;5495;53.252;10.390;2022-10-16T08:01:44;13.80;99.90
10885;DHT22;5495;53.252;10.390;2022-10-16T08:04:27;14.00;99.90
10885;DHT22;5495;53.252;10.390;2022-10-16T08:06:56;14.50;99.90
10885;DHT22;5495;53.252;10.390;2022-10-16T08:09:27;14.60;99.90
10885;DHT22;5495;53.252;10.390;2022-10-16T08:12:19;14.90;99.90
10885;DHT22;5495;53.252;10.390;2022-10-16T08:18:48;17.20;99.90
10885;DHT22;5495;53.252;10.390;2022-10-16T08:21:46;14.70;99.90
10885;DHT22;5495;53.252;10.390;2022-10-16T08:24:27;15.70;99.90
10885;DHT22;5495;53.252;10.390;2022-10-16T08:27:20;14.80;99.90
10885;DHT22;5495;53.252;10.390;2022-10-16T08:29:54;14.40;99.90
10885;DHT22;5495;53.252;10.390;2022-10-16T08:32:26;14.60;99.90
10885;DHT22;5495;53.252;10.390;2022-10-16T08:35:01;14.60;99.90
10885;DHT22;5495;53.252;10.390;2022-10-16T08:37:36;14.30;99.90
10885;DHT22;5495;53.252;10.390;2022-10-16T08:46:36;15.90;99.90
10885;DHT22;5495;53.252;10.390;2022-10-16T08:49:15;15.60;99.90
10885;DHT22;5495;53.252;10.390;2022-10-16T08:51:55;15.10;99.90
10885;DHT22;5495;53.252;10.390;2022-10-16T08:57:34;15.40;99.90
10885;DHT22;5495;53.252;10.390;2022-10-16T09:00:13;15.10;99.90
10885;DHT22;5495;53.252;10.390;2022-10-16T09:03:01;15.40;99.90
10885;DHT22;5495;53.252;10.390;2022-10-16T09:06:04;15.50;99.90
10885;DHT22;5495;53.252;10.390;2022-10-16T09:09:22;14.80;99.90
10885;DHT22;5495;53.252;10.390;2022-10-16T09:12:04;15.30;99.90
10885;DHT22;5495;53.252;10.390;2022-10-16T09:15:07;15.40;99.90
10885;DHT22;5495;53.252;10.390;2022-10-16T09:17:52;15.30;99.90
10885;DHT22;5495;53.252;10.390;2022-10-16T09:20:32;16.20;99.90
10885;DHT22;5495;53.252;10.390;2022-10-16T09:23:21;15.50;99.90
10885;DHT22;5495;53.252;10.390;2022-10-16T09:26:01;13.90;99.90
10885;DHT22;5495;53.252;10.390;2022-10-16T09:28:49;15.40;99.90
10885;DHT22;5495;53.252;10.390;2022-10-16T09:31:25;13.90;99.90
10885;DHT22;5495;53.252;10.390;2022-10-16T09:34:04;15.50;99.90
10885;DHT22;5495;53.252;10.390;2022-10-16T09:36:46;16.30;99.90
10885;DHT22;5495;53.252;10.390;2022-10-16T09:39:22;15.90;99.90
10885;DHT22;5495;53.252;10.390;2022-10-16T09:41:57;13.10;99.90
10885;DHT22;5495;53.252;10.390;2022-10-16T09:44:30;16.20;99.90
10885;DHT22;5495;53.252;10.390;2022-10-16T09:47:12;16.20;99.90
10885;DHT22;5495;53.252;10.390;2022-10-16T09:49:51;15.90;99.90
10885;DHT22;5495;53.252;10.390;2022-10-16T09:52:26;16.60;99.90
10885;DHT22;5495;53.252;10.390;2022-10-16T09:54:59;16.20;99.90
10885;DHT22;5495;53.252;10.390;2022-10-16T09:57:47;16.10;99.90
10885;DHT22;5495;53.252;10.390;2022-10-16T10:00:35;14.70;99.90
10885;DHT22;5495;53.252;10.390;2022-10-16T10:03:40;13.80;99.90
10885;DHT22;5495;53.252;10.390;2022-10-16T10:06:40;15.00;99.90
10885;DHT22;5495;53.252;10.390;2022-10-16T10:09:17;15.20;99.90
10885;DHT22;5495;53.252;10.390;2022-10-16T10:11:52;16.30;99.90
10885;DHT22;5495;53.252;10.390;2022-10-16T10:14:30;16.90;99.90
10885;DHT22;5495;53.252;10.390;2022-10-16T10:20:11;16.60;99.90
10885;DHT22;5495;53.252;10.390;2022-10-16T10:22:46;16.90;99.90
10885;DHT22;5495;53.252;10.390;2022-10-16T10:25:42;16.80;99.90
10885;DHT22;5495;53.252;10.390;2022-10-16T10:28:35;17.50;99.90
10885;DHT22;5495;53.252;10.390;2022-10-16T10:31:24;17.30;99.90
10885;DHT22;5495;53.252;10.390;2022-10-16T10:34:45;18.30;99.90
10885;DHT22;5495;53.252;10.390;2022-10-16T10:37:55;17.50;99.90
10885;DHT22;5495;53.252;10.390;2022-10-16T10:40:55;18.50;99.90
10885;DHT22;5495;53.252;10.390;2022-10-16T10:43:48;18.60;99.90
10885;DHT22;5495;53.252;10.390;2022-10-16T10:47:07;19.40;99.90
10885;DHT22;5495;53.252;10.390;2022-10-16T10:52:27;20.80;99.90
10885;DHT22;5495;53.252;10.390;2022-10-16T10:53:36;19.50;99.90
10885;DHT22;5495;53.252;10.390;2022-10-16T10:56:30;22.60;99.90
10885;DHT22;5495;53.252;10.390;2022-10-16T10:59:46;19.40;99.90
10885;DHT22;5495;53.252;10.390;2022-10-16T11:02:36;20.50;99.90
10885;DHT22;5495;53.252;10.390;2022-10-16T11:05:41;21.70;99.90
10885;DHT22;5495;53.252;10.390;2022-10-16T11:08:23;21.90;99.90
10885;DHT22;5495;53.252;10.390;2022-10-16T11:10:57;24.00;99.90
10885;DHT22;5495;53.252;10.390;2022-10-16T11:13:48;24.70;99.90
10885;DHT22;5495;53.252;10.390;2022-10-16T11:16:47;24.00;99.90
10885;DHT22;5495;53.252;10.390;2022-10-16T11:19:25;26.20;99.90
10885;DHT22;5495;53.252;10.390;2022-10-16T11:22:29;23.90;99.90
10885;DHT22;5495;53.252;10.390;2022-10-16T11:25:12;24.20;99.90
10885;DHT22;5495;53.252;10.390;2022-10-16T11:27:54;24.30;99.60
10885;DHT22;5495;53.252;10.390;2022-10-16T11:30:27;25.60;99.10
10885;DHT22;5495;53.252;10.390;2022-10-16T11:33:35;27.40;97.80
10885;DHT22;5495;53.252;10.390;2022-10-16T11:36:43;28.50;95.40
10885;DHT22;5495;53.252;10.390;2022-10-16T11:39:42;28.80;94.00
10885;DHT22;5495;53.252;10.390;2022-10-16T11:42:29;29.00;93.40
10885;DHT22;5495;53.252;10.390;2022-10-16T11:45:30;29.30;92.30
10885;DHT22;5495;53.252;10.390;2022-10-16T11:48:36;31.30;91.10
10885;DHT22;5495;53.252;10.390;2022-10-16T11:52:05;31.30;91.00
10885;DHT22;5495;53.252;10.390;2022-10-16T11:54:52;30.70;89.10
10885;DHT22;5495;53.252;10.390;2022-10-16T11:57:33;29.50;89.50
10885;DHT22;5495;53.252;10.390;2022-10-16T12:00:23;29.30;91.90
10885;DHT22;5495;53.252;10.390;2022-10-16T12:02:59;28.90;91.80
10885;DHT22;5495;53.252;10.390;2022-10-16T12:05:46;28.20;92.30
10885;DHT22;5495;53.252;10.390;2022-10-16T12:08:48;28.30;92.60
10885;DHT22;5495;53.252;10.390;2022-10-16T12:11:33;29.30;90.70
10885;DHT22;5495;53.252;10.390;2022-10-16T12:14:36;27.40;90.40
10885;DHT22;5495;53.252;10.390;2022-10-16T12:17:34;27.90;90.50
10885;DHT22;5495;53.252;10.390;2022-10-16T12:20:30;27.90;90.40
10885;DHT22;5495;53.252;10.390;2022-10-16T12:23:20;27.00;89.10
10885;DHT22;5495;53.252;10.390;2022-10-16T12:25:58;30.60;91.30
10885;DHT22;5495;53.252;10.390;2022-10-16T12:28:30;31.60;88.80
10885;DHT22;5495;53.252;10.390;2022-10-16T12:31:00;31.60;87.40
10885;DHT22;5495;53.252;10.390;2022-10-16T12:33:55;29.80;90.30
10885;DHT22;5495;53.252;10.390;2022-10-16T12:36:44;27.60;90.10
10885;DHT22;5495;53.252;10.390;2022-10-16T12:40:24;27.50;91.80
10885;DHT22;5495;53.252;10.390;2022-10-16T12:42:34;24.40;94.00
10885;DHT22;5495;53.252;10.390;2022-10-16T12:45:25;23.00;94.00
10885;DHT22;5495;53.252;10.390;2022-10-16T12:48:21;23.00;95.70
10885;DHT22;5495;53.252;10.390;2022-10-16T12:50:54;22.00;96.60
10885;DHT22;5495;53.252;10.390;2022-10-16T12:56:28;21.20;96.40
10885;DHT22;5495;53.252;10.390;2022-10-16T12:59:20;22.20;98.80
10885;DHT22;5495;53.252;10.390;2022-10-16T13:02:39;21.30;98.10
10885;DHT22;5495;53.252;10.390;2022-10-16T13:05:26;20.70;98.40
10885;DHT22;5495;53.252;10.390;2022-10-16T13:08:14;20.00;98.50
10885;DHT22;5495;53.252;10.390;2022-10-16T13:11:02;19.80;99.50
10885;DHT22;5495;53.252;10.390;2022-10-16T13:16:48;19.90;99.90
10885;DHT22;5495;53.252;10.390;2022-10-16T13:19:37;19.70;99.90
10885;DHT22;5495;53.252;10.390;2022-10-16T13:22:14;19.60;99.90
10885;DHT22;5495;53.252;10.390;2022-10-16T13:24:53;20.10;99.90
10885;DHT22;5495;53.252;10.390;2022-10-16T13:27:44;19.40;99.90
10885;DHT22;5495;53.252;10.390;2022-10-16T13:30:16;19.40;99.90
10885;DHT22;5495;53.252;10.390;2022-10-16T13:32:58;19.30;99.90
10885;DHT22;5495;53.252;10.390;2022-10-16T13:35:33;19.40;99.90
10885;DHT22;5495;53.252;10.390;2022-10-16T13:38:20;19.90;99.90
10885;DHT22;5495;53.252;10.390;2022-10-16T13:40:55;19.10;99.90
10885;DHT22;5495;53.252;10.390;2022-10-16T13:43:27;19.10;99.90
10885;DHT22;5495;53.252;10.390;2022-10-16T13:45:57;18.90;99.90
10885;DHT22;5495;53.252;10.390;2022-10-16T13:48:27;19.30;99.90
10885;DHT22;5495;53.252;10.390;2022-10-16T13:51:04;18.90;99.90
10885;DHT22;5495;53.252;10.390;2022-10-16T13:54:00;18.90;99.90
10885;DHT22;5495;53.252;10.390;2022-10-16T13:56:45;19.00;99.90
10885;DHT22;5495;53.252;10.390;2022-10-16T13:59:33;19.30;99.90
10885;DHT22;5495;53.252;10.390;2022-10-16T14:02:18;19.20;99.90
10885;DHT22;5495;53.252;10.390;2022-10-16T14:04:49;19.00;99.90
10885;DHT22;5495;53.252;10.390;2022-10-16T14:07:31;18.60;99.90
10885;DHT22;5495;53.252;10.390;2022-10-16T14:10:03;18.50;99.90
10885;DHT22;5495;53.252;10.390;2022-10-16T14:12:43;18.50;99.90
10885;DHT22;5495;53.252;10.390;2022-10-16T14:15:23;20.50;99.90
10885;DHT22;5495;53.252;10.390;2022-10-16T14:18:13;19.10;99.90
10885;DHT22;5495;53.252;10.390;2022-10-16T14:20:51;20.40;99.90
10885;DHT22;5495;53.252;10.390;2022-10-16T14:23:33;18.20;99.90
10885;DHT22;5495;53.252;10.390;2022-10-16T14:26:18;18.60;99.90
10885;DHT22;5495;53.252;10.390;2022-10-16T14:29:03;18.90;99.90
10885;DHT22;5495;53.252;10.390;2022-10-16T14:31:53;15.60;99.90
10885;DHT22;5495;53.252;10.390;2022-10-16T14:34:37;18.20;99.90
10885;DHT22;5495;53.252;10.390;2022-10-16T14:37:22;18.10;99.90
10885;DHT22;5495;53.252;10.390;2022-10-16T14:39:51;18.50;99.90
10885;DHT22;5495;53.252;10.390;2022-10-16T14:45:18;17.90;99.90
10885;DHT22;5495;53.252;10.390;2022-10-16T14:48:01;19.80;99.90
10885;DHT22;5495;53.252;10.390;2022-10-16T14:50:48;18.20;99.90
10885;DHT22;5495;53.252;10.390;2022-10-16T14:53:39;17.90;99.90
10885;DHT22;5495;53.252;10.390;2022-10-16T14:56:21;17.80;99.90
10885;DHT22;5495;53.252;10.390;2022-10-16T14:59:05;18.00;99.90
10885;DHT22;5495;53.252;10.390;2022-10-16T15:01:46;17.70;99.90
10885;DHT22;5495;53.252;10.390;2022-10-16T15:04:15;16.30;99.90
10885;DHT22;5495;53.252;10.390;2022-10-16T15:06:54;18.10;99.90
10885;DHT22;5495;53.252;10.390;2022-10-16T15:09:50;18.70;99.90
10885;DHT22;5495;53.252;10.390;2022-10-16T15:15:05;17.50;99.90
10885;DHT22;5495;53.252;10.390;2022-10-16T15:17:52;17.40;99.90
10885;DHT22;5495;53.252;10.390;2022-10-16T15:20:37;18.00;99.90
10885;DHT22;5495;53.252;10.390;2022-10-16T15:23:17;17.80;99.90
10885;DHT22;5495;53.252;10.390;2022-10-16T15:25:53;17.30;99.90
10885;DHT22;5495;53.252;10.390;2022-10-16T15:28:33;17.20;99.90
10885;DHT22;5495;53.252;10.390;2022-10-16T15:31:18;15.20;99.90
10885;DHT22;5495;53.252;10.390;2022-10-16T15:33:59;17.30;99.90
10885;DHT22;5495;53.252;10.390;2022-10-16T15:37:15;17.20;99.90
10885;DHT22;5495;53.252;10.390;2022-10-16T15:39:58;14.50;99.90
10885;DHT22;5495;53.252;10.390;2022-10-16T15:42:36;17.40;99.90
10885;DHT22;5495;53.252;10.390;2022-10-16T15:45:16;17.40;99.90
10885;DHT22;5495;53.252;10.390;2022-10-16T15:47:49;17.20;99.90
10885;DHT22;5495;53.252;10.390;2022-10-16T15:50:22;17.00;99.90
10885;DHT22;5495;53.252;10.390;2022-10-16T15:53:31;16.60;99.90
10885;DHT22;5495;53.252;10.390;2022-10-16T16:00:32;18.70;99.90
10885;DHT22;5495;53.252;10.390;2022-10-16T16:03:24;16.70;99.90
10885;DHT22;5495;53.252;10.390;2022-10-16T16:07:12;16.70;99.90
10885;DHT22;5495;53.252;10.390;2022-10-16T16:09:51;19.90;99.90
10885;DHT22;5495;53.252;10.390;2022-10-16T16:28:24;16.00;99.90
10885;DHT22;5495;53.252;10.390;2022-10-16T16:31:12;13.00;99.90
10885;DHT22;5495;53.252;10.390;2022-10-16T16:34:23;18.10;99.90
10885;DHT22;5495;53.252;10.390;2022-10-16T16:37:09;14.80;99.90
10885;DHT22;5495;53.252;10.390;2022-10-16T16:40:02;15.40;99.90
10885;DHT22;5495;53.252;10.390;2022-10-16T16:43:02;15.30;99.90
10885;DHT22;5495;53.252;10.390;2022-10-16T16:45:56;14.90;99.90
10885;DHT22;5495;53.252;10.390;2022-10-16T16:48:39;15.50;99.90
10885;DHT22;5495;53.252;10.390;2022-10-16T16:51:23;18.40;99.90
10885;DHT22;5495;53.252;10.390;2022-10-16T17:04:01;15.40;99.90
10885;DHT22;5495;53.252;10.390;2022-10-16T17:06:41;14.80;99.90
10885;DHT22;5495;53.252;10.390;2022-10-16T17:09:24;15.00;99.90
10885;DHT22;5495;53.252;10.390;2022-10-16T17:12:17;15.40;99.90
10885;DHT22;5495;53.252;10.390;2022-10-16T17:14:50;13.90;99.90
10885;DHT22;5495;53.252;10.390;2022-10-16T17:17:40;15.00;99.90
10885;DHT22;5495;53.252;10.390;2022-10-16T17:20:19;14.90;99.90
10885;DHT22;5495;53.252;10.390;2022-10-16T17:22:47;16.90;99.90
10885;DHT22;5495;53.252;10.390;2022-10-16T17:25:20;14.80;99.90
10885;DHT22;5495;53.252;10.390;2022-10-16T17:31:33;15.60;99.90
10885;DHT22;5495;53.252;10.390;2022-10-16T17:34:20;16.40;99.90
10885;DHT22;5495;53.252;10.390;2022-10-16T17:37:25;14.60;99.90
10885;DHT22;5495;53.252;10.390;2022-10-16T17:39:56;14.70;99.90
10885;DHT22;5495;53.252;10.390;2022-10-16T17:42:34;14.40;99.90
10885;DHT22;5495;53.252;10.390;2022-10-16T17:45:08;11.70;99.90
10885;DHT22;5495;53.252;10.390;2022-10-16T17:47:47;14.40;99.90
10885;DHT22;5495;53.252;10.390;2022-10-16T17:50:18;14.10;99.90
10885;DHT22;5495;53.252;10.390;2022-10-16T17:52:51;14.00;99.90
10885;DHT22;5495;53.252;10.390;2022-10-16T17:55:25;13.90;99.90
10885;DHT22;5495;53.252;10.390;2022-10-16T17:58:31;13.90;99.90
10885;DHT22;5495;53.252;10.390;2022-10-16T18:01:21;15.60;99.90
10885;DHT22;5495;53.252;10.390;2022-10-16T18:03:55;14.10;99.90
10885;DHT22;5495;53.252;10.390;2022-10-16T18:06:40;13.80;99.90
10885;DHT22;5495;53.252;10.390;2022-10-16T18:09:21;14.40;99.90
10885;DHT22;5495;53.252;10.390;2022-10-16T18:11:52;13.90;99.90
10885;DHT22;5495;53.252;10.390;2022-10-16T18:14:31;14.00;99.90
10885;DHT22;5495;53.252;10.390;2022-10-16T18:17:13;13.40;99.90
10885;DHT22;5495;53.252;10.390;2022-10-16T18:19:48;13.80;99.90
10885;DHT22;5495;53.252;10.390;2022-10-16T18:22:24;13.50;99.90
10885;DHT22;5495;53.252;10.390;2022-10-16T18:28:16;13.40;99.90
10885;DHT22;5495;53.252;10.390;2022-10-16T18:30:47;13.90;99.90
10885;DHT22;5495;53.252;10.390;2022-10-16T18:33:20;13.40;99.90
10885;DHT22;5495;53.252;10.390;2022-10-16T18:35:54;13.30;99.90
10885;DHT22;5495;53.252;10.390;2022-10-16T18:38:25;14.10;99.90
10885;DHT22;5495;53.252;10.390;2022-10-16T18:40:54;13.20;99.90
10885;DHT22;5495;53.252;10.390;2022-10-16T18:43:22;13.20;99.90
10885;DHT22;5495;53.252;10.390;2022-10-16T18:45:59;13.40;99.90
10885;DHT22;5495;53.252;10.390;2022-10-16T18:48:28;14.10;99.90
10885;DHT22;5495;53.252;10.390;2022-10-16T18:51:15;13.60;99.90
10885;DHT22;5495;53.252;10.390;2022-10-16T18:53:49;13.50;99.90
10885;DHT22;5495;53.252;10.390;2022-10-16T18:56:22;13.70;99.90
10885;DHT22;5495;53.252;10.390;2022-10-16T18:59:00;13.10;99.90
10885;DHT22;5495;53.252;10.390;2022-10-16T19:01:33;13.00;99.90